Flight Track Log - Related Links

Times and Time Zones

All times are in EDT time to prevent confusion due to time zone crossing. See the N100PU flight status page for this flight to view local times or setup timezone preferences in your user account.

Time Position Orientation Groundspeed Altitude Reporting Facility
EDT Latitude Longitude Course Direction KTS MPH feet Rate Location/Type
Fri 08:59:56 PM 35.0667 -89.9833 338° Northwest 154 177 900  Level KMEM
Fri 09:00:56 PM 35.1000 -90.0000 338° Northwest 175 201 3,500 2,700 Climbing KMEM
Fri 09:01:56 PM 35.1500 -89.9833 15° North 213 245 6,300 2,650 Climbing KMEM
Fri 09:02:56 PM 35.2000 -89.9333 39° Northeast 226 260 8,800 2,258 Climbing KMEM
Fri 09:05:10 PM 35.3361 -89.9067 North 219 252 13,600 2,165 Climbing Memphis Center
Fri 09:06:10 PM 35.4028 -89.8908 11° North 227 261 15,800 2,132 Climbing Memphis Center
Fri 09:07:11 PM 35.4694 -89.8753 11° North 240 276 17,900 1,850 Climbing Memphis Center
Fri 09:08:10 PM 35.5403 -89.8569 12° North 246 283 19,500 1,743 Climbing Memphis Center
Fri 09:10:10 PM 35.6800 -89.8253 10° North 269 310 23,100 1,867 Climbing Memphis Center
Fri 09:11:10 PM 35.7675 -89.8044 11° North 262 302 25,100 1,900 Climbing Memphis Center
Fri 09:12:10 PM 35.8486 -89.7858 11° North 275 316 26,900 1,550 Climbing Memphis Center
Fri 09:13:10 PM 35.9319 -89.7675 10° North 286 329 28,200 1,350 Climbing Memphis Center
Fri 09:14:10 PM 36.0175 -89.7489 10° North 301 346 29,600 1,289 Climbing Memphis Center
Fri 09:15:11 PM 36.1047 -89.7275 11° North 308 354 30,800 1,400 Climbing Memphis Center
Fri 09:16:10 PM 36.1944 -89.7064 11° North 315 362 32,400 1,513 Climbing Memphis Center
Fri 09:17:10 PM 36.2819 -89.6875 10° North 315 362 33,800 1,300 Climbing Memphis Center
Fri 09:18:10 PM 36.3672 -89.6689 10° North 315 362 35,000 600 Climbing Memphis Center
Fri 09:19:10 PM 36.4589 -89.6475 11° North 315 362 35,000  Level Memphis Center
Fri 09:20:10 PM 36.5378 -89.6261 12° North 329 379 35,000  Level Memphis Center
Fri 09:21:10 PM 36.6461 -89.5992 11° North 347 399 35,000  Level Memphis Center
Fri 09:22:10 PM 36.7503 -89.5750 11° North 365 420 35,000  Level Memphis Center
Fri 09:23:10 PM 36.8522 -89.5481 12° North 370 426 35,000  Level Memphis Center
Fri 09:25:07 PM 37.0558 -89.4972 11° North 378 435 35,000  Level Kansas City Center
Fri 09:26:08 PM 37.1597 -89.4731 11° North 379 436 35,000  Level Kansas City Center
Fri 09:27:10 PM 37.2631 -89.4472 11° North 378 435 35,000  Level Kansas City Center
Fri 09:28:11 PM 37.3658 -89.4233 10° North 377 434 35,000  Level Kansas City Center
Fri 09:29:13 PM 37.4700 -89.4136 North 377 434 35,000  Level Kansas City Center
Fri 09:30:14 PM 37.5892 -89.4131 360° North 372 428 35,000  Level Kansas City Center
Fri 09:31:16 PM 37.6914 -89.4100 North 369 425 35,000  Level Kansas City Center
Fri 09:32:17 PM 37.7939 -89.3986 North 371 427 35,000  Level Kansas City Center
Fri 09:33:19 PM 37.8983 -89.3189 31° Northeast 395 455 35,000  Level Kansas City Center
Fri 09:34:21 PM 37.9867 -89.2392 35° Northeast 392 451 35,000  Level Kansas City Center
Fri 09:35:21 PM 38.0750 -89.1597 35° Northeast 391 450 35,000  Level Kansas City Center
Fri 09:36:23 PM 38.1528 -89.0878 36° Northeast 390 449 35,000  Level Kansas City Center
Fri 09:37:24 PM 38.2583 -88.9903 36° Northeast 392 451 35,000  Level Kansas City Center
Fri 09:38:26 PM 38.3458 -88.9103 36° Northeast 391 450 35,000  Level Kansas City Center
Fri 09:39:27 PM 38.4394 -88.8244 36° Northeast 389 448 35,000  Level Kansas City Center
Fri 09:40:29 PM 38.5269 -88.7436 36° Northeast 389 448 35,000  Level Kansas City Center
Fri 09:41:30 PM 38.6081 -88.6672 36° Northeast 390 449 35,000 -49 Level Kansas City Center
Fri 09:42:31 PM 38.6947 -88.5867 36° Northeast 390 449 34,900 -537 Descending Kansas City Center
Fri 09:43:33 PM 38.7828 -88.5044 36° Northeast 389 448 33,900 -976 Descending Kansas City Center
Fri 09:44:34 PM 38.8714 -88.4217 36° Northeast 389 448 32,900 -984 Descending Kansas City Center
Fri 09:45:35 PM 38.9622 -88.3375 36° Northeast 394 453 31,900 -1,073 Descending Kansas City Center
Fri 09:46:37 PM 39.0711 -88.2339 36° Northeast 401 461 30,700 -927 Descending Kansas City Center
Fri 09:47:38 PM 39.1625 -88.1478 36° Northeast 402 463 30,000 -323 Descending Kansas City Center
Fri 09:48:47 PM 39.2519 -88.0633 36° Northeast 403 464 30,000 -185 Level Indianapolis Center
Fri 09:49:48 PM 39.3428 -87.9761 37° Northeast 404 465 29,600 -836 Descending Indianapolis Center
Fri 09:50:49 PM 39.4325 -87.8911 36° Northeast 402 463 28,300 -2,410 Descending Indianapolis Center
Fri 09:51:50 PM 39.5378 -87.7889 37° Northeast 400 460 24,700 -3,220 Descending Indianapolis Center
Fri 09:52:52 PM 39.6239 -87.7075 36° Northeast 390 449 21,700 -2,927 Descending Indianapolis Center
Fri 09:53:53 PM 39.7042 -87.6300 37° Northeast 370 426 18,700 -2,754 Descending Indianapolis Center
Fri 09:54:54 PM 39.7817 -87.5561 36° Northeast 355 409 16,100 -2,361 Descending Indianapolis Center
Fri 09:55:55 PM 39.8542 -87.4847 37° Northeast 337 388 13,900 -1,918 Descending Indianapolis Center
Fri 09:56:56 PM 39.9261 -87.4156 36° Northeast 327 376 12,200 -1,610 Descending Indianapolis Center
Fri 09:57:58 PM 39.9950 -87.3486 37° Northeast 316 364 10,600 -1,024 Descending Indianapolis Center
Fri 09:58:59 PM 40.0544 -87.2889 38° Northeast 285 328 10,100 -1,033 Descending Indianapolis Center
Fri 10:00:00 PM 40.1161 -87.2294 36° Northeast 277 319 8,500 -906 Descending Indianapolis Center
Fri 10:00:45 PM 40.1661 -87.1828 35° Northeast 276 318 8,500 -1,598 Level Chicago Center
Fri 10:03:04 PM 40.3197 -87.1294 15° North 238 274 3,600 -1,650 Descending Indianapolis Center
Fri 10:04:05 PM 40.3739 -87.1219 North 231 266 3,000 -590 Descending Indianapolis Center

Login

Don't have an account? Register now (free) for customized features, flight alerts, and more!